Flight Track Log - Related Links

Times and Time Zones

All times are in EDT time to prevent confusion due to time zone crossing. See the UAL4498 flight status page for this flight to view local times or setup timezone preferences in your user account.

Time Position Orientation Groundspeed Altitude Reporting Facility
EDT Latitude Longitude Course Direction KTS MPH feet Rate Location/Type
Fri 07:34:48 PM 39.3167 -94.7167 82° East 141 162 1,700  Level Kansas City TRACON
Fri 07:35:18 PM 39.3333 -94.7000 38° Northeast 175 201 2,800 2,966 Climbing Kansas City TRACON
Fri 07:36:17 PM 39.3556 -94.6306 67° East 242 278 6,100 3,124 Climbing Kansas City Center
Fri 07:37:19 PM 39.3597 -94.5431 86° East 254 292 9,100 2,274 Climbing Kansas City Center
Fri 07:38:00 PM 39.3438 -94.2518 80° East  Level FlightAware Approximate
Fri 07:38:21 PM 39.3644 -94.4464 86° East 286 329 10,800  Level Kansas City Center
Fri 07:39:00 PM 39.3613 -94.1233 80° East  Level FlightAware Approximate
Fri 07:39:23 PM 39.3708 -94.3161 86° East 324 373 13,500  Level Kansas City Center
Fri 07:40:00 PM 39.3780 -93.9819 82° East  Level FlightAware Approximate
Fri 07:40:24 PM 39.3756 -94.1994 87° East 338 389 15,600  Level Kansas City Center
Fri 07:41:26 PM 39.3800 -94.0611 88° East 345 397 18,100 2,274 Climbing Kansas City Center
Fri 07:42:28 PM 39.3856 -93.9461 86° East 337 388 20,300 2,661 Climbing Kansas City Center
Fri 07:43:30 PM 39.4031 -93.8167 80° East 327 376 23,600 2,613 Climbing Kansas City Center
Fri 07:44:32 PM 39.4150 -93.7194 81° East 316 364 25,700 2,516 Climbing Kansas City Center
Fri 07:45:34 PM 39.4322 -93.5897 80° East 307 353 28,800 2,565 Climbing Kansas City Center
Fri 07:46:36 PM 39.4439 -93.4881 82° East 292 336 31,000 1,984 Climbing Kansas City Center
Fri 07:47:38 PM 39.4564 -93.3869 81° East 289 333 32,900 976 Climbing Kansas City Center
Fri 07:48:39 PM 39.4683 -93.2764 82° East 310 357 33,000 585 Climbing Kansas City Center
Fri 07:49:41 PM 39.4808 -93.1547 82° East 341 392 34,100 1,887 Climbing Kansas City Center
Fri 07:50:43 PM 39.4894 -93.0161 85° East 330 380 36,900 1,403 Climbing Kansas City Center
Fri 07:51:45 PM 39.4981 -92.9036 84° East 323 372 37,000 48 Climbing Kansas City Center
Fri 07:52:47 PM 39.5075 -92.7800 84° East 330 380 37,000  Level Kansas City Center
Fri 07:53:49 PM 39.5183 -92.6489 84° East 348 400 37,000  Level Kansas City Center
Fri 07:54:50 PM 39.5281 -92.5053 85° East 387 445 37,000  Level Kansas City Center
Fri 07:55:52 PM 39.5400 -92.3583 84° East 406 467 37,000  Level Kansas City Center
Fri 07:56:54 PM 39.5514 -92.1886 85° East 403 464 37,000  Level Kansas City Center
Fri 07:57:56 PM 39.5608 -92.0503 85° East 396 456 37,000  Level Kansas City Center
Fri 07:58:58 PM 39.5706 -91.9114 85° East 392 451 37,000  Level Kansas City Center
Fri 08:00:00 PM 39.5789 -91.7742 85° East 388 447 37,000  Level Kansas City Center
Fri 08:01:01 PM 39.5886 -91.6339 85° East 391 450 37,000  Level Kansas City Center
Fri 08:02:03 PM 39.6006 -91.4656 85° East 394 453 37,000  Level Kansas City Center
Fri 08:03:05 PM 39.6089 -91.3183 86° East 393 452 37,000  Level Kansas City Center
Fri 08:04:07 PM 39.6178 -91.1772 85° East 393 452 37,000  Level Kansas City Center
Fri 08:05:09 PM 39.6275 -91.0339 85° East 395 455 37,000  Level Kansas City Center
Fri 08:06:11 PM 39.6356 -90.8942 86° East 393 452 37,000  Level Kansas City Center
Fri 08:07:12 PM 39.6439 -90.7517 86° East 395 455 37,000  Level Kansas City Center
Fri 08:08:14 PM 39.6519 -90.6064 86° East 399 459 37,000  Level Kansas City Center
Fri 08:09:16 PM 39.6606 -90.4594 86° East 406 467 37,000  Level Kansas City Center
Fri 08:10:18 PM 39.6681 -90.3131 86° East 407 468 37,000  Level Kansas City Center
Fri 08:11:19 PM 39.6775 -90.1375 86° East 407 468 37,000  Level Kansas City Center
Fri 08:12:21 PM 39.6847 -89.9936 86° East 403 464 37,000  Level Kansas City Center
Fri 08:13:23 PM 39.6917 -89.8494 86° East 400 460 37,000  Level Kansas City Center
Fri 08:14:24 PM 39.6983 -89.7050 87° East 401 461 37,000  Level Kansas City Center
Fri 08:15:26 PM 39.7061 -89.5583 86° East 405 466 37,000  Level Kansas City Center
Fri 08:16:28 PM 39.7136 -89.4053 86° East 415 478 37,000  Level Kansas City Center
Fri 08:17:29 PM 39.7197 -89.2564 87° East 415 478 37,000  Level Kansas City Center
Fri 08:18:31 PM 39.7281 -89.0811 86° East 410 472 37,000  Level Kansas City Center
Fri 08:19:33 PM 39.7339 -88.9386 87° East 405 466 37,000  Level Kansas City Center
Fri 08:20:35 PM 39.7403 -88.7942 87° East 402 463 37,000  Level Kansas City Center
Fri 08:21:36 PM 39.7456 -88.6450 87° East 406 467 37,000  Level Kansas City Center
Fri 08:22:38 PM 39.7528 -88.4917 86° East 415 478 37,000  Level Kansas City Center
Fri 08:23:39 PM 39.7600 -88.3406 86° East 420 483 37,000  Level Kansas City Center
Fri 08:24:41 PM 39.7664 -88.1686 87° East 420 483 37,000  Level Kansas City Center
Fri 08:25:05 PM 39.7656 -88.1233 91° East 419 482 37,000  Level Indianapolis Center
Fri 08:26:07 PM 39.7700 -87.9706 88° East 423 487 37,000  Level Indianapolis Center
Fri 08:27:08 PM 39.7758 -87.8169 87° East 426 490 37,000  Level Indianapolis Center
Fri 08:28:10 PM 39.7814 -87.6317 88° East 429 494 37,000  Level Indianapolis Center
Fri 08:29:11 PM 39.7872 -87.4769 87° East 430 495 37,000  Level Indianapolis Center
Fri 08:30:13 PM 39.7906 -87.3222 88° East 429 494 37,000  Level Indianapolis Center
Fri 08:31:14 PM 39.7958 -87.1683 87° East 429 494 37,000  Level Indianapolis Center
Fri 08:32:16 PM 39.7994 -87.0144 88° East 427 491 37,000  Level Indianapolis Center
Fri 08:33:17 PM 39.8031 -86.8611 88° East 427 491 37,000  Level Indianapolis Center
Fri 08:34:19 PM 39.8075 -86.7083 88° East 425 489 37,000  Level Indianapolis Center
Fri 08:35:20 PM 39.8106 -86.5533 88° East 427 491 37,000  Level Indianapolis Center
Fri 08:36:22 PM 39.8144 -86.3983 88° East 428 493 37,000  Level Indianapolis Center
Fri 08:37:23 PM 39.8461 -86.2186 77° East 437 503 37,000  Level Indianapolis Center
Fri 08:38:25 PM 39.8825 -86.0519 74° East 443 510 37,000  Level Indianapolis Center
Fri 08:39:26 PM 39.9144 -85.8989 75° East 440 506 37,000  Level Indianapolis Center
Fri 08:40:27 PM 39.9633 -85.7511 67° East 448 516 37,000  Level Indianapolis Center
Fri 08:41:29 PM 40.0167 -85.6056 64° Northeast 448 516 37,000  Level Indianapolis Center
Fri 08:42:30 PM 40.0589 -85.4561 70° East 441 507 37,000  Level Indianapolis Center
Fri 08:43:32 PM 40.1039 -85.3058 69° East 446 513 37,000  Level Indianapolis Center
Fri 08:44:33 PM 40.1461 -85.1531 70° East 446 513 37,000  Level Indianapolis Center
Fri 08:45:35 PM 40.1903 -85.0025 69° East 445 512 37,000  Level Indianapolis Center
Fri 08:46:36 PM 40.2392 -84.8261 70° East 449 517 37,000  Level Indianapolis Center
Fri 08:47:38 PM 40.2833 -84.6719 69° East 449 517 37,000  Level Indianapolis Center
Fri 08:48:39 PM 40.3264 -84.5175 70° East 447 514 37,000  Level Indianapolis Center
Fri 08:49:40 PM 40.3703 -84.3631 70° East 448 516 37,000  Level Indianapolis Center
Fri 08:50:42 PM 40.4128 -84.2083 70° East 446 513 37,000  Level Indianapolis Center
Fri 08:51:43 PM 40.4547 -84.0514 71° East 449 517 37,000  Level Indianapolis Center
Fri 08:52:45 PM 40.4989 -83.8944 70° East 452 520 37,000  Level Indianapolis Center
Fri 08:53:46 PM 40.5414 -83.7356 71° East 455 524 37,000 -49 Level Indianapolis Center
Fri 08:54:47 PM 40.5850 -83.5744 70° East 460 529 36,900  Descending Indianapolis Center
Fri 08:56:00 PM 40.6372 -83.3878 70° East 449 517 37,000 45 Climbing Cleveland Center
Fri 08:57:00 PM 40.6764 -83.2333 71° East 444 511 37,000  Level Cleveland Center
Fri 08:58:00 PM 40.7194 -83.0733 70° East 444 511 37,000  Level Cleveland Center
Fri 08:59:00 PM 40.7625 -82.9106 71° East 455 524 37,000  Level Cleveland Center
Fri 09:00:00 PM 40.8033 -82.7392 72° East 455 524 37,000  Level Cleveland Center
Fri 09:01:00 PM 40.8461 -82.5786 71° East 455 524 37,000  Level Cleveland Center
Fri 09:02:00 PM 40.8861 -82.4206 71° East 460 529 37,000  Level Cleveland Center
Fri 09:03:00 PM 40.9261 -82.2622 71° East 459 528 37,000  Level Cleveland Center
Fri 09:04:00 PM 40.9681 -82.1039 71° East 454 522 37,000  Level Cleveland Center
Fri 09:05:00 PM 41.0075 -81.9450 72° East 459 528 37,000  Level Cleveland Center
Fri 09:06:00 PM 41.0469 -81.7864 72° East 459 528 37,000  Level Cleveland Center
Fri 09:07:00 PM 41.0858 -81.6300 72° East 454 522 37,000  Level Cleveland Center
Fri 09:08:00 PM 41.1247 -81.4708 72° East 449 517 37,000  Level Cleveland Center
Fri 09:09:00 PM 41.1633 -81.3114 72° East 449 517 37,000  Level Cleveland Center
Fri 09:10:00 PM 41.2019 -81.1544 72° East 454 522 37,000  Level Cleveland Center
Fri 09:11:00 PM 41.2422 -80.9917 72° East 454 522 37,000  Level Cleveland Center
Fri 09:12:00 PM 41.2800 -80.8344 72° East 454 522 37,000  Level Cleveland Center
Fri 09:13:00 PM 41.3178 -80.6717 73° East 454 522 37,000  Level Cleveland Center
Fri 09:14:00 PM 41.3533 -80.5333 71° East 454 522 37,000  Level Cleveland Center
Fri 09:15:00 PM 41.3886 -80.3783 73° East 448 516 37,000  Level Cleveland Center
Fri 09:16:00 PM 41.4300 -80.2036 72° East 443 510 37,000  Level Cleveland Center
Fri 09:17:00 PM 41.4689 -80.0456 72° East 443 510 37,000  Level Cleveland Center
Fri 09:18:00 PM 41.5033 -79.8900 73° East 443 510 37,000  Level Cleveland Center
Fri 09:19:00 PM 41.5400 -79.7258 73° East 443 510 37,000  Level Cleveland Center
Fri 09:20:00 PM 41.5761 -79.5700 73° East 443 510 37,000  Level Cleveland Center
Fri 09:21:00 PM 41.6100 -79.4111 74° East 443 510 37,000  Level Cleveland Center
Fri 09:22:00 PM 41.6458 -79.2522 73° East 443 510 37,000  Level Cleveland Center
Fri 09:23:00 PM 41.6439 -79.0883 91° East 430 495 37,000  Level Cleveland Center
Fri 09:24:00 PM 41.6250 -78.9219 99° East 435 501 37,000  Level Cleveland Center
Fri 09:25:58 PM 41.5881 -78.6042 99° East 418 481 37,000  Level New York Center
Fri 09:26:59 PM 41.5717 -78.4411 98° East 443 510 37,000 -908 Level New York Center
Fri 09:27:57 PM 41.5506 -78.2836 100° East 445 512 35,200 -2,034 Descending New York Center
Fri 09:28:57 PM 41.5314 -78.1206 99° East 435 501 33,000 -2,033 Descending New York Center
Fri 09:29:58 PM 41.5119 -77.9631 99° East 428 493 31,100 -992 Descending New York Center
Fri 09:30:58 PM 41.4867 -77.7942 101° East 444 511 31,000 -50 Descending New York Center
Fri 09:31:59 PM 41.4631 -77.6283 101° East 485 558 31,000 -496 Level New York Center
Fri 09:32:59 PM 41.4422 -77.4794 101° East 472 543 30,000 -2,339 Descending New York Center
Fri 09:33:57 PM 41.4164 -77.3081 101° East 451 519 26,400 -3,458 Descending New York Center
Fri 09:34:57 PM 41.3953 -77.1594 101° East 426 490 23,200 -3,174 Descending New York Center
Fri 09:35:58 PM 41.3717 -77.0161 102° East 409 471 20,000 -2,579 Descending New York Center
Fri 09:36:58 PM 41.3536 -76.8819 100° East 392 451 18,000 -1,008 Descending New York Center
Fri 09:37:57 PM 41.3314 -76.7500 103° East 370 426 18,000  Level New York Center
Fri 09:38:57 PM 41.2975 -76.6336 111° Southeast 370 426 18,000  Level New York Center
Fri 09:39:57 PM 41.2642 -76.5039 109° East 375 432 18,000  Level New York Center
Fri 09:40:58 PM 41.2253 -76.3597 110° East 375 432 18,000  Level New York Center
Fri 09:41:57 PM 41.1917 -76.2331 109° East 375 432 18,000  Level New York Center
Fri 09:42:58 PM 41.1561 -76.1006 110° East 375 432 18,000  Level New York Center
Fri 09:43:57 PM 41.1239 -75.9822 110° East 380 437 18,000 -706 Level New York Center
Fri 09:44:57 PM 41.0861 -75.8444 110° East 375 432 16,600 -1,770 Descending New York Center
Fri 09:45:59 PM 41.0536 -75.7239 110° East 359 413 14,400 -1,800 Descending New York Center
Fri 09:46:57 PM 41.0211 -75.6058 110° East 352 405 13,000 -706 Descending New York Center
Fri 09:47:58 PM 40.9897 -75.5019 112° Southeast 341 392 13,000 -50 Level New York Center
Fri 09:48:58 PM 40.9553 -75.3706 109° East 341 392 12,900 -843 Descending New York Center
Fri 09:49:59 PM 40.9258 -75.2694 111° Southeast 334 384 11,300 -1,488 Descending New York Center
Fri 09:50:59 PM 40.8964 -75.1661 111° Southeast 310 357 9,900 -1,831 Descending New York Center
Fri 09:51:57 PM 40.8669 -75.0625 111° Southeast 283 326 7,700 -1,450 Descending New York Center
Fri 09:52:59 PM 40.8431 -74.9733 109° East 265 305 7,000 -344 Descending New York Center
Fri 09:53:59 PM 40.8169 -74.8867 112° Southeast 251 289 7,000 -51 Level New York Center
Fri 09:54:56 PM 40.8261 -74.8022 82° East 248 285 6,900 -508 Descending New York Center
Fri 09:55:57 PM 40.8542 -74.7133 67° East 237 273 6,000 -738 Descending New York Center
Fri 09:56:58 PM 40.8733 -74.6375 71° East 237 273 5,400 -504 Descending New York Center
Fri 09:57:56 PM 40.8889 -74.5453 77° East 237 273 5,000 -605 Descending New York Center
Fri 09:58:57 PM 40.9017 -74.4692 77° East 237 273 4,200 -992 Descending New York Center
Fri 09:59:57 PM 40.9211 -74.3767 74° East 237 273 3,000 -537 Descending New York Center
Fri 10:01:00 PM 40.9333 -74.2833 80° East 246 283 3,100 51 Climbing New York TRACON
Fri 10:01:54 PM 40.9167 -74.2167 108° East 243 280 3,100 -53 Level New York TRACON
Fri 10:02:54 PM 40.8833 -74.1333 118° Southeast 240 276 3,000 -150 Descending New York TRACON
Fri 10:03:54 PM 40.8333 -74.1167 166° South 184 212 2,800 -421 Descending New York TRACON
Fri 10:04:48 PM 40.7833 -74.1167 180° South 183 211 2,200 -900 Descending New York TRACON
Fri 10:05:54 PM 40.7333 -74.1333 194° South 146 168 1,000 -1,091 Descending New York TRACON

Login

Don't have an account? Register now (free) for customized features, flight alerts, and more!